Time;durP1;ratioP1;P1;durP2;ratioP2;P2;SDS_P1;SDS_P2;PMS_P1;PMS_P2;Temp;Humidity;BMP_temperature;BMP_pressure;BME280_temperature;BME280_humidity;BME280_pressure;Samples;Min_cycle;Max_cycle;Signal;HPM_P1;HPM_P2
2023/12/22 00:01:56;;;;;;;;;;;;;;;;;;5075417;28;19928;-71
2023/12/22 00:04:23;;;;;;;;;;;;;;;;;;5072832;28;19924;-71
2023/12/22 00:06:51;;;;;;;;;;;;;;;;;;5073541;28;19946;-72
2023/12/22 00:09:19;;;;;;;;;;;;;;;;;;5071067;28;20308;-71
2023/12/22 00:11:46;;;;;;;;;;;;;;;;;;5072364;28;20027;-72
2023/12/22 00:14:13;;;;;;;;;;;;;;;;;;5073065;28;19928;-71
2023/12/22 00:16:40;;;;;;;;;;;;;;;;;;5074546;28;19924;-71
2023/12/22 00:19:07;;;;;;;;;;;;;;;;;;5074377;28;19931;-70
2023/12/22 00:21:34;;;;;;;;;;;;;;;;;;5070738;28;19931;-71
2023/12/22 00:24:01;;;;;;;;;;;;;;;;;;5067924;28;19932;-71
2023/12/22 00:26:28;;;;;;;;;;;;;;;;;;5072746;28;19977;-70
2023/12/22 00:28:55;;;;;;;;;;;;;;;;;;5072111;28;19990;-70
2023/12/22 00:31:22;;;;;;;;;;;;;;;;;;5076827;28;20021;-70
2023/12/22 00:33:49;;;;;;;;;;;;;;;;;;5072923;28;19928;-70
2023/12/22 00:36:17;;;;;;;;;;;;;;;;;;5072068;28;19932;-70
2023/12/22 00:38:44;;;;;;;;;;;;;;;;;;5071856;28;19932;-70
2023/12/22 00:41:12;;;;;;;;;;;;;;;;;;5069141;28;19929;-70
2023/12/22 00:43:39;;;;;;;;;;;;;;;;;;5072363;28;19932;-70
2023/12/22 00:46:06;;;;;;;;;;;;;;;;;;5073720;28;19993;-69
2023/12/22 00:48:33;;;;;;;;;;;;;;;;;;5072248;28;20015;-70
2023/12/22 00:51:00;;;;;;;;;;;;;;;;;;5073140;28;20318;-70
2023/12/22 00:53:27;;;;;;;;;;;;;;;;;;5072556;28;19936;-70
2023/12/22 00:55:54;;;;;;;;;;;;;;;;;;5074004;28;19963;-70
2023/12/22 00:58:21;;;;;;;;;;;;;;;;;;5071619;28;19928;-71
2023/12/22 01:00:48;;;;;;;;;;;;;;;;;;5073075;28;19976;-69
2023/12/22 01:03:15;;;;;;;;;;;;;;;;;;5071407;28;19929;-71
2023/12/22 01:05:42;;;;;;;;;;;;;;;;;;5083824;28;19930;-70
2023/12/22 01:08:09;;;;;;;;;;;;;;;;;;5094409;28;19930;-70
2023/12/22 01:10:36;;;;;;;;;;;;;;;;;;5081467;28;19925;-70
2023/12/22 01:13:03;;;;;;;;;;;;;;;;;;5072376;28;20363;-70
2023/12/22 01:15:29;;;;;;;;;;;;;;;;;;5071912;28;20033;-70
2023/12/22 01:17:56;;;;;;;;;;;;;;;;;;5073685;28;19939;-69
2023/12/22 01:20:23;;;;;;;;;;;;;;;;;;5071360;28;20375;-70
2023/12/22 01:22:50;;;;;;;;;;;;;;;;;;5069799;28;19931;-70
2023/12/22 01:25:17;;;;;;;;;;;;;;;;;;5070706;28;19985;-69
2023/12/22 01:27:46;;;;;;;;;;;;;;;;;;5071672;28;19986;-69
2023/12/22 01:30:13;;;;;;;;;;;;;;;;;;5071810;28;19966;-69
2023/12/22 01:32:40;;;;;;;;;;;;;;;;;;5073409;28;19924;-70
2023/12/22 01:35:09;;;;;;;;;;;;;;;;;;5072905;28;19978;-69
2023/12/22 01:37:36;;;;;;;;;;;;;;;;;;5071666;28;20335;-69
2023/12/22 01:40:03;;;;;;;;;;;;;;;;;;5083307;28;19946;-70
2023/12/22 01:42:30;;;;;;;;;;;;;;;;;;5078173;28;20311;-70
2023/12/22 01:44:57;;;;;;;;;;;;;;;;;;5069459;28;20731;-70
2023/12/22 01:47:24;;;;;;;;;;;;;;;;;;5072551;28;19925;-70
2023/12/22 01:49:52;;;;;;;;;;;;;;;;;;5071967;28;19935;-70
2023/12/22 01:52:19;;;;;;;;;;;;;;;;;;5071438;28;19978;-70
2023/12/22 01:54:46;;;;;;;;;;;;;;;;;;5070968;28;20562;-70
2023/12/22 01:57:13;;;;;;;;;;;;;;;;;;5074100;28;19924;-70
2023/12/22 01:59:40;;;;;;;;;;;;;;;;;;5072823;28;19978;-70
2023/12/22 02:02:07;;;;;;;;;;;;;;;;;;5066531;28;19929;-70
2023/12/22 02:04:34;;;;;;;;;;;;;;;;;;5066441;28;20443;-70
2023/12/22 02:07:01;;;;;;;;;;;;;;;;;;5071811;28;20406;-70
2023/12/22 02:09:28;;;;;;;;;;;;;;;;;;5071649;28;19924;-71
2023/12/22 02:11:55;;;;;;;;;;;;;;;;;;5071985;28;19931;-71
2023/12/22 02:14:22;;;;;;;;;;;;;;;;;;5071177;28;19929;-70
2023/12/22 02:16:49;;;;;;;;;;;;;;;;;;5072124;28;19924;-71
2023/12/22 02:19:16;;;;;;;;;;;;;;;;;;5068754;28;19944;-70
2023/12/22 02:21:43;;;;;;;;;;;;;;;;;;5070110;28;19925;-69
2023/12/22 02:24:10;;;;;;;;;;;;;;;;;;5071188;28;20011;-70
2023/12/22 02:26:37;;;;;;;;;;;;;;;;;;5072315;28;19931;-69
2023/12/22 02:29:04;;;;;;;;;;;;;;;;;;5069901;28;19986;-69
2023/12/22 02:31:31;;;;;;;;;;;;;;;;;;5068088;28;19924;-69
2023/12/22 02:33:58;;;;;;;;;;;;;;;;;;5071361;28;19928;-70
2023/12/22 02:36:25;;;;;;;;;;;;;;;;;;5071735;28;20001;-69
2023/12/22 02:38:52;;;;;;;;;;;;;;;;;;5070652;28;20304;-69
2023/12/22 02:41:19;;;;;;;;;;;;;;;;;;5071865;28;19994;-69
2023/12/22 02:43:46;;;;;;;;;;;;;;;;;;5070841;28;19990;-69
2023/12/22 02:46:13;;;;;;;;;;;;;;;;;;5071602;28;20442;-69
2023/12/22 02:48:40;;;;;;;;;;;;;;;;;;5069138;28;19983;-69
2023/12/22 02:51:07;;;;;;;;;;;;;;;;;;5068793;28;20285;-69
2023/12/22 02:53:34;;;;;;;;;;;;;;;;;;5070011;28;19998;-69
2023/12/22 02:56:02;;;;;;;;;;;;;;;;;;5068173;28;20404;-69
2023/12/22 02:58:29;;;;;;;;;;;;;;;;;;5071783;28;19925;-69
2023/12/22 03:00:56;;;;;;;;;;;;;;;;;;5070837;28;19970;-69
2023/12/22 03:03:23;;;;;;;;;;;;;;;;;;5068925;28;19954;-69
2023/12/22 03:05:50;;;;;;;;;;;;;;;;;;5071047;28;19932;-69
2023/12/22 03:08:17;;;;;;;;;;;;;;;;;;5072326;28;19948;-69
2023/12/22 03:10:44;;;;;;;;;;;;;;;;;;5069549;28;19951;-69
2023/12/22 03:13:11;;;;;;;;;;;;;;;;;;5071022;28;19928;-69
2023/12/22 03:15:38;;;;;;;;;;;;;;;;;;5070194;28;19925;-69
2023/12/22 03:18:05;;;;;;;;;;;;;;;;;;5071256;28;19924;-69
2023/12/22 03:20:33;;;;;;;;;;;;;;;;;;5072062;28;19928;-69
2023/12/22 03:22:59;;;;;;;;;;;;;;;;;;5076112;28;19924;-69
2023/12/22 03:25:27;;;;;;;;;;;;;;;;;;5067121;28;19970;-69
2023/12/22 03:27:54;;;;;;;;;;;;;;;;;;5067173;28;19924;-69
2023/12/22 03:30:21;;;;;;;;;;;;;;;;;;5070732;28;19924;-69
2023/12/22 03:32:48;;;;;;;;;;;;;;;;;;5070926;28;19928;-69
2023/12/22 03:35:15;;;;;;;;;;;;;;;;;;5069120;28;20584;-70
2023/12/22 03:37:42;;;;;;;;;;;;;;;;;;5071160;28;19924;-69
2023/12/22 03:40:09;;;;;;;;;;;;;;;;;;5071008;28;19924;-69
2023/12/22 03:42:36;;;;;;;;;;;;;;;;;;5069704;28;20272;-69
2023/12/22 03:45:03;;;;;;;;;;;;;;;;;;5070417;28;20007;-69
2023/12/22 03:47:30;;;;;;;;;;;;;;;;;;5068721;28;19924;-70
2023/12/22 03:49:57;;;;;;;;;;;;;;;;;;5070861;28;19925;-70
2023/12/22 03:52:24;;;;;;;;;;;;;;;;;;5070973;28;19932;-70
2023/12/22 03:54:51;;;;;;;;;;;;;;;;;;5059225;28;19929;-70
2023/12/22 03:57:17;;;;;;;;;;;;;;;;;;5069991;28;19932;-69
2023/12/22 03:59:44;;;;;;;;;;;;;;;;;;5069379;28;19956;-70
2023/12/22 04:02:11;;;;;;;;;;;;;;;;;;5070614;28;20443;-69
2023/12/22 04:04:38;;;;;;;;;;;;;;;;;;5069334;28;19924;-70
2023/12/22 04:07:05;;;;;;;;;;;;;;;;;;5070262;28;19932;-69
2023/12/22 04:09:33;;;;;;;;;;;;;;;;;;5071496;28;19990;-69
2023/12/22 04:12:00;;;;;;;;;;;;;;;;;;5069379;28;19931;-70
2023/12/22 04:14:27;;;;;;;;;;;;;;;;;;5066895;28;20342;-70
2023/12/22 04:16:54;;;;;;;;;;;;;;;;;;5070907;28;19954;-70
2023/12/22 04:19:21;;;;;;;;;;;;;;;;;;5070177;28;19928;-70
2023/12/22 04:21:48;;;;;;;;;;;;;;;;;;5070605;28;19932;-71
2023/12/22 04:24:15;;;;;;;;;;;;;;;;;;5069393;28;19977;-70
2023/12/22 04:26:42;;;;;;;;;;;;;;;;;;5071282;28;19993;-70
2023/12/22 04:29:09;;;;;;;;;;;;;;;;;;5070047;28;19977;-70
2023/12/22 04:31:36;;;;;;;;;;;;;;;;;;5070425;28;19924;-70
2023/12/22 04:34:03;;;;;;;;;;;;;;;;;;5069589;28;20383;-70
2023/12/22 04:36:30;;;;;;;;;;;;;;;;;;5070092;28;19924;-70
2023/12/22 04:38:57;;;;;;;;;;;;;;;;;;5074833;28;19925;-70
2023/12/22 04:41:24;;;;;;;;;;;;;;;;;;5072203;28;19924;-70
2023/12/22 04:43:51;;;;;;;;;;;;;;;;;;5073721;28;20374;-70
2023/12/22 04:46:18;;;;;;;;;;;;;;;;;;5073949;28;19933;-70
2023/12/22 04:48:45;;;;;;;;;;;;;;;;;;5074343;28;19925;-70
2023/12/22 04:51:12;;;;;;;;;;;;;;;;;;5072120;28;19925;-70
2023/12/22 04:53:39;;;;;;;;;;;;;;;;;;5073085;28;19925;-70
2023/12/22 04:56:06;;;;;;;;;;;;;;;;;;5073476;28;19925;-70
2023/12/22 04:58:33;;;;;;;;;;;;;;;;;;5073261;28;19928;-70
2023/12/22 05:01:00;;;;;;;;;;;;;;;;;;5071528;28;19924;-70
2023/12/22 05:03:27;;;;;;;;;;;;;;;;;;5073069;28;19925;-70
2023/12/22 05:05:54;;;;;;;;;;;;;;;;;;5070326;28;19932;-70
2023/12/22 05:08:21;;;;;;;;;;;;;;;;;;5073156;28;19932;-70
2023/12/22 05:10:48;;;;;;;;;;;;;;;;;;5073351;28;19978;-70
2023/12/22 05:13:15;;;;;;;;;;;;;;;;;;5071427;28;19977;-69
2023/12/22 05:15:42;;;;;;;;;;;;;;;;;;5071415;28;20037;-70
2023/12/22 05:18:09;;;;;;;;;;;;;;;;;;5071813;28;19940;-69
2023/12/22 05:20:36;;;;;;;;;;;;;;;;;;5073403;28;19925;-70
2023/12/22 05:23:03;;;;;;;;;;;;;;;;;;5073237;28;19932;-69
2023/12/22 05:25:30;;;;;;;;;;;;;;;;;;5071936;28;19937;-70
2023/12/22 05:27:57;;;;;;;;;;;;;;;;;;5067938;28;20307;-70
2023/12/22 05:30:25;;;;;;;;;;;;;;;;;;5071752;28;19928;-70
2023/12/22 05:32:52;;;;;;;;;;;;;;;;;;5072212;28;19929;-69
2023/12/22 05:35:19;;;;;;;;;;;;;;;;;;5073785;28;19983;-69
2023/12/22 05:37:46;;;;;;;;;;;;;;;;;;5071777;28;19977;-69
2023/12/22 05:40:13;;;;;;;;;;;;;;;;;;5073137;28;19925;-70
2023/12/22 05:42:40;;;;;;;;;;;;;;;;;;5073297;28;19924;-70
2023/12/22 05:45:07;;;;;;;;;;;;;;;;;;5071868;28;19960;-70
2023/12/22 05:47:34;;;;;;;;;;;;;;;;;;5069562;28;19932;-70
2023/12/22 05:50:01;;;;;;;;;;;;;;;;;;5071612;28;20272;-69
2023/12/22 05:52:28;;;;;;;;;;;;;;;;;;5070974;28;19924;-69
2023/12/22 05:54:55;;;;;;;;;;;;;;;;;;5072216;28;19925;-69
2023/12/22 05:57:22;;;;;;;;;;;;;;;;;;5071863;28;19929;-69
2023/12/22 05:59:49;;;;;;;;;;;;;;;;;;5070826;28;19925;-70
2023/12/22 06:02:16;;;;;;;;;;;;;;;;;;5070789;28;20373;-70
2023/12/22 06:04:43;;;;;;;;;;;;;;;;;;5072140;28;19926;-70
2023/12/22 06:07:10;;;;;;;;;;;;;;;;;;5072198;28;19931;-70
2023/12/22 06:09:38;;;;;;;;;;;;;;;;;;5071515;28;20421;-69
2023/12/22 06:12:06;;;;;;;;;;;;;;;;;;5072660;28;19924;-70
2023/12/22 06:14:34;;;;;;;;;;;;;;;;;;5069847;28;19932;-69
2023/12/22 06:17:02;;;;;;;;;;;;;;;;;;5069370;28;20379;-69
2023/12/22 06:19:30;;;;;;;;;;;;;;;;;;5068588;28;19932;-69
2023/12/22 06:21:57;;;;;;;;;;;;;;;;;;5071025;28;20374;-70
2023/12/22 06:24:24;;;;;;;;;;;;;;;;;;5071970;28;19924;-70
2023/12/22 06:26:51;;;;;;;;;;;;;;;;;;5072606;28;19928;-69
2023/12/22 06:29:18;;;;;;;;;;;;;;;;;;5069889;28;19932;-69
2023/12/22 06:31:46;;;;;;;;;;;;;;;;;;5069411;28;19924;-69
2023/12/22 06:34:13;;;;;;;;;;;;;;;;;;5070521;28;19929;-70
2023/12/22 06:36:40;;;;;;;;;;;;;;;;;;5062653;28;20411;-69
2023/12/22 06:39:07;;;;;;;;;;;;;;;;;;5071166;28;19939;-70
2023/12/22 06:41:35;;;;;;;;;;;;;;;;;;5071677;28;19924;-69
2023/12/22 06:44:01;;;;;;;;;;;;;;;;;;5070585;28;20386;-69
2023/12/22 06:46:28;;;;;;;;;;;;;;;;;;5069717;28;19925;-69
2023/12/22 06:48:55;;;;;;;;;;;;;;;;;;5066609;28;19940;-69
2023/12/22 06:51:22;;;;;;;;;;;;;;;;;;5069052;28;19964;-70
2023/12/22 06:53:49;;;;;;;;;;;;;;;;;;5069580;28;19978;-71
2023/12/22 06:56:17;;;;;;;;;;;;;;;;;;5069904;28;20395;-69
2023/12/22 06:58:44;;;;;;;;;;;;;;;;;;5063039;28;20295;-69
2023/12/22 07:01:11;;;;;;;;;;;;;;;;;;5067593;28;19924;-69
2023/12/22 07:03:38;;;;;;;;;;;;;;;;;;5068597;28;19977;-68
2023/12/22 07:06:05;;;;;;;;;;;;;;;;;;5072660;28;19993;-69
2023/12/22 07:08:33;;;;;;;;;;;;;;;;;;5063352;28;19928;-69
2023/12/22 07:11:00;;;;;;;;;;;;;;;;;;5068090;28;19931;-69
2023/12/22 07:13:27;;;;;;;;;;;;;;;;;;5070490;28;19978;-68
2023/12/22 07:15:54;;;;;;;;;;;;;;;;;;5068484;28;19944;-68
2023/12/22 07:18:21;;;;;;;;;;;;;;;;;;5063988;28;19947;-68
2023/12/22 07:20:48;;;;;;;;;;;;;;;;;;5068102;28;20019;-69
2023/12/22 07:23:16;;;;;;;;;;;;;;;;;;5073275;28;20391;-69
2023/12/22 07:25:43;;;;;;;;;;;;;;;;;;5066764;28;19955;-68
2023/12/22 07:28:10;;;;;;;;;;;;;;;;;;5065864;28;19932;-69
2023/12/22 07:30:37;;;;;;;;;;;;;;;;;;5066653;28;20380;-69
2023/12/22 07:33:04;;;;;;;;;;;;;;;;;;5065837;28;19924;-67
2023/12/22 07:35:31;;;;;;;;;;;;;;;;;;5068201;28;19931;-68
2023/12/22 07:37:58;;;;;;;;;;;;;;;;;;5070477;28;19933;-68
2023/12/22 07:40:25;;;;;;;;;;;;;;;;;;5078073;28;20382;-69
2023/12/22 07:42:52;;;;;;;;;;;;;;;;;;5076734;28;19928;-66
2023/12/22 07:45:19;;;;;;;;;;;;;;;;;;5071656;28;19925;-66
2023/12/22 07:47:46;;;;;;;;;;;;;;;;;;5068993;28;19924;-66
2023/12/22 07:50:14;;;;;;;;;;;;;;;;;;5069511;28;19969;-66
2023/12/22 07:52:41;;;;;;;;;;;;;;;;;;5068800;28;19932;-67
2023/12/22 07:55:09;;;;;;;;;;;;;;;;;;5070681;28;19924;-67
2023/12/22 07:57:36;;;;;;;;;;;;;;;;;;5069869;28;19924;-66
2023/12/22 08:00:03;;;;;;;;;;;;;;;;;;5063088;28;19925;-67
2023/12/22 08:02:30;;;;;;;;;;;;;;;;;;5051580;28;19932;-66
2023/12/22 08:04:57;;;;;;;;;;;;;;;;;;5056031;28;19924;-66
2023/12/22 08:07:24;;;;;;;;;;;;;;;;;;5070082;28;19980;-66
2023/12/22 08:09:51;;;;;;;;;;;;;;;;;;5071031;28;19939;-66
2023/12/22 08:12:19;;;;;;;;;;;;;;;;;;5072541;28;20349;-67
2023/12/22 08:14:46;;;;;;;;;;;;;;;;;;5064132;28;21505;-67
2023/12/22 08:17:13;;;;;;;;;;;;;;;;;;5056640;28;19971;-68
2023/12/22 08:19:42;;;;;;;;;;;;;;;;;;5064425;28;20068;-67
2023/12/22 08:22:09;;;;;;;;;;;;;;;;;;5069210;28;19974;-67
2023/12/22 08:24:36;;;;;;;;;;;;;;;;;;5067420;28;19952;-69
2023/12/22 08:27:03;;;;;;;;;;;;;;;;;;5066314;28;19936;-68
2023/12/22 08:29:29;;;;;;;;;;;;;;;;;;5070140;28;19985;-69
2023/12/22 08:31:56;;;;;;;;;;;;;;;;;;5066596;28;19928;-69
2023/12/22 08:34:23;;;;;;;;;;;;;;;;;;5066759;28;20304;-69
2023/12/22 08:36:51;;;;;;;;;;;;;;;;;;5068585;28;19925;-68
2023/12/22 08:39:18;;;;;;;;;;;;;;;;;;5063296;28;19939;-68
2023/12/22 08:41:45;;;;;;;;;;;;;;;;;;5071200;28;20418;-69
2023/12/22 08:44:14;;;;;;;;;;;;;;;;;;5069851;28;19932;-68
2023/12/22 08:46:41;;;;;;;;;;;;;;;;;;5063902;28;19994;-68
2023/12/22 08:49:08;;;;;;;;;;;;;;;;;;5070951;28;19970;-68
2023/12/22 08:51:35;;;;;;;;;;;;;;;;;;5070398;28;19924;-68
2023/12/22 08:54:04;;;;;;;;;;;;;;;;;;5065679;28;19924;-68
2023/12/22 08:56:31;;;;;;;;;;;;;;;;;;5068764;28;19924;-68
2023/12/22 08:58:59;;;;;;;;;;;;;;;;;;5073832;28;19967;-66
2023/12/22 09:01:26;;;;;;;;;;;;;;;;;;5067983;28;19972;-66
2023/12/22 09:03:53;;;;;;;;;;;;;;;;;;5058902;28;19924;-66
2023/12/22 09:06:20;;;;;;;;;;;;;;;;;;5067768;28;19925;-66
2023/12/22 09:08:47;;;;;;;;;;;;;;;;;;5073423;28;19924;-66
2023/12/22 09:11:14;;;;;;;;;;;;;;;;;;5060625;28;19972;-66
2023/12/22 09:13:41;;;;;;;;;;;;;;;;;;5068699;28;19929;-66
2023/12/22 09:16:08;;;;;;;;;;;;;;;;;;5066279;28;19936;-66
2023/12/22 09:18:35;;;;;;;;;;;;;;;;;;5071922;28;19928;-67
2023/12/22 09:21:02;;;;;;;;;;;;;;;;;;5063737;28;19963;-67
2023/12/22 09:23:29;;;;;;;;;;;;;;;;;;5071555;28;19924;-67
2023/12/22 09:25:57;;;;;;;;;;;;;;;;;;5066057;28;19942;-65
2023/12/22 09:28:25;;;;;;;;;;;;;;;;;;5073553;28;20015;-67
2023/12/22 09:30:52;;;;;;;;;;;;;;;;;;5067205;28;19964;-67
2023/12/22 09:33:19;;;;;;;;;;;;;;;;;;5064101;28;19932;-68
2023/12/22 09:35:46;;;;;;;;;;;;;;;;;;5071910;28;19931;-68
2023/12/22 09:38:13;;;;;;;;;;;;;;;;;;5061380;28;19993;-67
2023/12/22 09:40:40;;;;;;;;;;;;;;;;;;5064368;28;19924;-67
2023/12/22 09:43:07;;;;;;;;;;;;;;;;;;5062683;28;20345;-67
2023/12/22 09:45:34;;;;;;;;;;;;;;;;;;5073128;28;19993;-68
2023/12/22 09:48:01;;;;;;;;;;;;;;;;;;5072755;28;20288;-67
2023/12/22 09:50:28;;;;;;;;;;;;;;;;;;5067125;28;19924;-68
2023/12/22 09:52:55;;;;;;;;;;;;;;;;;;5081205;28;19981;-69
2023/12/22 09:55:22;;;;;;;;;;;;;;;;;;5062717;28;19925;-68
2023/12/22 09:57:49;;;;;;;;;;;;;;;;;;5056140;28;20390;-68
2023/12/22 10:00:16;;;;;;;;;;;;;;;;;;5069355;28;19924;-68
2023/12/22 10:02:45;;;;;;;;;;;;;;;;;;5059812;28;20424;-67
2023/12/22 10:05:12;;;;;;;;;;;;;;;;;;5068805;28;19925;-69
2023/12/22 10:07:40;;;;;;;;;;;;;;;;;;5069021;28;19924;-69
2023/12/22 10:10:07;;;;;;;;;;;;;;;;;;5061748;28;19978;-69
2023/12/22 10:12:34;;;;;;;;;;;;;;;;;;5064924;28;20253;-69
2023/12/22 10:15:01;;;;;;;;;;;;;;;;;;5051658;28;21178;-68
2023/12/22 10:17:28;;;;;;;;;;;;;;;;;;5066882;28;19925;-69
2023/12/22 10:19:55;;;;;;;;;;;;;;;;;;5069197;28;19978;-69
2023/12/22 10:22:23;;;;;;;;;;;;;;;;;;5054328;28;19956;-71
2023/12/22 10:24:53;;;;;;;;;;;;;;;;;;5054771;28;20020;-70
2023/12/22 10:27:23;;;;;;;;;;;;;;;;;;5063178;28;19932;-70
2023/12/22 10:29:50;;;;;;;;;;;;;;;;;;5059456;28;19928;-71
2023/12/22 10:32:17;;;;;;;;;;;;;;;;;;5060783;28;20031;-68
2023/12/22 10:34:44;;;;;;;;;;;;;;;;;;5059813;28;20270;-68
2023/12/22 10:37:12;;;;;;;;;;;;;;;;;;5067071;28;19931;-67
2023/12/22 10:39:40;;;;;;;;;;;;;;;;;;5060634;28;19939;-71
2023/12/22 10:42:07;;;;;;;;;;;;;;;;;;5066768;28;19939;-70
2023/12/22 10:44:34;;;;;;;;;;;;;;;;;;5061092;28;21184;-69
2023/12/22 10:47:01;;;;;;;;;;;;;;;;;;5062567;28;20000;-67
2023/12/22 10:49:28;;;;;;;;;;;;;;;;;;5064543;28;19932;-68
2023/12/22 10:51:56;;;;;;;;;;;;;;;;;;5055502;28;19924;-67
2023/12/22 10:54:23;;;;;;;;;;;;;;;;;;5063873;28;19928;-69
2023/12/22 10:56:50;;;;;;;;;;;;;;;;;;5071347;28;19925;-69
2023/12/22 10:59:17;;;;;;;;;;;;;;;;;;5067604;28;19928;-69
2023/12/22 11:01:44;;;;;;;;;;;;;;;;;;5068209;28;19929;-68
2023/12/22 11:04:11;;;;;;;;;;;;;;;;;;5060223;28;20376;-68
2023/12/22 11:06:38;;;;;;;;;;;;;;;;;;5061881;28;20009;-69
2023/12/22 11:09:06;;;;;;;;;;;;;;;;;;5064069;28;19924;-69
2023/12/22 11:11:33;;;;;;;;;;;;;;;;;;5068667;28;19925;-69
2023/12/22 11:14:00;;;;;;;;;;;;;;;;;;5064753;28;19955;-68
2023/12/22 11:16:27;;;;;;;;;;;;;;;;;;5066677;28;19928;-69
2023/12/22 11:18:54;;;;;;;;;;;;;;;;;;5065045;28;19932;-69
2023/12/22 11:21:21;;;;;;;;;;;;;;;;;;5058593;28;19933;-68
2023/12/22 11:23:49;;;;;;;;;;;;;;;;;;5060456;28;20300;-69
2023/12/22 11:26:16;;;;;;;;;;;;;;;;;;5063743;28;19971;-69
2023/12/22 11:28:44;;;;;;;;;;;;;;;;;;5062695;28;20033;-68
2023/12/22 11:31:11;;;;;;;;;;;;;;;;;;5059900;28;20446;-69
2023/12/22 11:33:38;;;;;;;;;;;;;;;;;;5053729;28;19932;-69
2023/12/22 11:36:05;;;;;;;;;;;;;;;;;;5066887;28;19964;-70
2023/12/22 11:38:32;;;;;;;;;;;;;;;;;;5056849;28;20002;-68
2023/12/22 11:40:59;;;;;;;;;;;;;;;;;;5062452;28;20007;-69
2023/12/22 11:43:26;;;;;;;;;;;;;;;;;;5054977;28;19932;-68
2023/12/22 11:45:53;;;;;;;;;;;;;;;;;;5060278;28;19943;-68
2023/12/22 11:48:21;;;;;;;;;;;;;;;;;;5055629;28;19989;-68
2023/12/22 11:50:48;;;;;;;;;;;;;;;;;;5064860;28;19971;-68
2023/12/22 11:53:15;;;;;;;;;;;;;;;;;;5066343;28;20055;-67
2023/12/22 11:55:42;;;;;;;;;;;;;;;;;;5069265;28;19975;-67
2023/12/22 11:58:09;;;;;;;;;;;;;;;;;;5073756;28;20046;-67
2023/12/22 12:00:37;;;;;;;;;;;;;;;;;;5073422;28;19925;-68
2023/12/22 12:03:04;;;;;;;;;;;;;;;;;;5068432;28;19924;-69
2023/12/22 12:05:31;;;;;;;;;;;;;;;;;;5070965;28;19972;-68
2023/12/22 12:07:58;;;;;;;;;;;;;;;;;;5068851;28;19925;-69
2023/12/22 12:10:25;;;;;;;;;;;;;;;;;;5068682;28;19978;-69
2023/12/22 12:12:52;;;;;;;;;;;;;;;;;;5073622;28;20359;-68
2023/12/22 12:15:19;;;;;;;;;;;;;;;;;;5065019;28;19928;-68
2023/12/22 12:17:46;;;;;;;;;;;;;;;;;;5062752;28;19963;-70
2023/12/22 12:20:13;;;;;;;;;;;;;;;;;;5056760;28;19956;-69
2023/12/22 12:22:40;;;;;;;;;;;;;;;;;;5061418;28;19932;-70
2023/12/22 12:25:07;;;;;;;;;;;;;;;;;;5072218;28;19924;-70
2023/12/22 12:27:36;;;;;;;;;;;;;;;;;;5071140;28;19968;-70
2023/12/22 12:30:03;;;;;;;;;;;;;;;;;;5058641;28;19925;-70
2023/12/22 12:32:30;;;;;;;;;;;;;;;;;;5063876;28;19964;-69
2023/12/22 12:34:57;;;;;;;;;;;;;;;;;;5062808;28;19952;-70
2023/12/22 12:37:24;;;;;;;;;;;;;;;;;;5064502;28;19979;-70
2023/12/22 12:39:53;;;;;;;;;;;;;;;;;;5061266;28;20474;-70
2023/12/22 12:42:20;;;;;;;;;;;;;;;;;;5072732;28;19931;-70
2023/12/22 12:44:47;;;;;;;;;;;;;;;;;;5065534;28;19924;-70
2023/12/22 12:47:14;;;;;;;;;;;;;;;;;;5060835;28;19925;-70
2023/12/22 12:49:41;;;;;;;;;;;;;;;;;;5064445;28;20390;-70
2023/12/22 12:52:08;;;;;;;;;;;;;;;;;;5066478;28;19960;-70
2023/12/22 12:54:35;;;;;;;;;;;;;;;;;;5063714;28;19924;-69
2023/12/22 12:57:02;;;;;;;;;;;;;;;;;;5069468;28;20052;-69
2023/12/22 12:59:29;;;;;;;;;;;;;;;;;;5068139;28;19951;-70
2023/12/22 13:01:57;;;;;;;;;;;;;;;;;;5066068;28;19976;-70
2023/12/22 13:04:24;;;;;;;;;;;;;;;;;;5066316;28;20276;-69
2023/12/22 13:06:51;;;;;;;;;;;;;;;;;;5064132;28;19975;-70
2023/12/22 13:09:19;;;;;;;;;;;;;;;;;;5060281;28;19928;-70
2023/12/22 13:11:46;;;;;;;;;;;;;;;;;;5064900;28;19929;-70
2023/12/22 13:14:13;;;;;;;;;;;;;;;;;;5071953;28;20003;-70
2023/12/22 13:16:40;;;;;;;;;;;;;;;;;;5066197;28;20025;-70
2023/12/22 13:19:07;;;;;;;;;;;;;;;;;;5071169;28;19932;-71
2023/12/22 13:21:34;;;;;;;;;;;;;;;;;;5063688;28;19964;-69
2023/12/22 13:24:01;;;;;;;;;;;;;;;;;;5062339;28;20326;-70
2023/12/22 13:26:28;;;;;;;;;;;;;;;;;;5066321;28;19994;-70
2023/12/22 13:28:55;;;;;;;;;;;;;;;;;;5066630;28;20531;-70
2023/12/22 13:31:23;;;;;;;;;;;;;;;;;;5067280;28;19933;-70
2023/12/22 13:33:50;;;;;;;;;;;;;;;;;;5062986;28;19928;-71
2023/12/22 13:36:17;;;;;;;;;;;;;;;;;;5061231;28;19933;-69
2023/12/22 13:38:44;;;;;;;;;;;;;;;;;;5066204;28;20642;-70
2023/12/22 13:41:11;;;;;;;;;;;;;;;;;;5070643;28;19998;-70
2023/12/22 13:43:37;;;;;;;;;;;;;;;;;;5061400;28;19950;-71
2023/12/22 13:46:06;;;;;;;;;;;;;;;;;;5058264;28;20392;-72
2023/12/22 13:48:33;;;;;;;;;;;;;;;;;;5061823;28;20334;-71
2023/12/22 13:51:00;;;;;;;;;;;;;;;;;;5072433;28;19971;-69
2023/12/22 13:53:27;;;;;;;;;;;;;;;;;;5063924;28;20021;-71
2023/12/22 13:55:54;;;;;;;;;;;;;;;;;;5068097;28;20332;-69
2023/12/22 13:58:21;;;;;;;;;;;;;;;;;;5066774;28;19924;-70
2023/12/22 14:00:48;;;;;;;;;;;;;;;;;;5069165;28;19973;-69
2023/12/22 14:03:16;;;;;;;;;;;;;;;;;;5063828;28;19963;-71
2023/12/22 14:05:43;;;;;;;;;;;;;;;;;;5064948;28;20382;-73
2023/12/22 14:08:10;;;;;;;;;;;;;;;;;;5066432;28;19924;-72
2023/12/22 14:10:37;;;;;;;;;;;;;;;;;;5061858;28;20343;-72
2023/12/22 14:13:04;;;;;;;;;;;;;;;;;;5061732;28;19932;-73
2023/12/22 14:15:33;;;;;;;;;;;;;;;;;;5065760;28;22595;-74
2023/12/22 14:18:00;;;;;;;;;;;;;;;;;;5062295;28;20670;-71
2023/12/22 14:20:27;;;;;;;;;;;;;;;;;;5066650;28;19924;-72
2023/12/22 14:22:54;;;;;;;;;;;;;;;;;;5060186;28;19933;-71
2023/12/22 14:25:21;;;;;;;;;;;;;;;;;;5068614;28;20413;-71
2023/12/22 14:27:49;;;;;;;;;;;;;;;;;;5060260;28;20044;-72
2023/12/22 14:30:16;;;;;;;;;;;;;;;;;;5061430;28;19990;-71
2023/12/22 14:32:44;;;;;;;;;;;;;;;;;;5057573;28;20015;-70
2023/12/22 14:35:11;;;;;;;;;;;;;;;;;;5066861;28;19985;-71
2023/12/22 14:37:38;;;;;;;;;;;;;;;;;;5065757;28;20026;-73
2023/12/22 14:40:05;;;;;;;;;;;;;;;;;;5061279;28;20311;-72
2023/12/22 14:42:32;;;;;;;;;;;;;;;;;;5064766;28;19924;-70
2023/12/22 14:45:01;;;;;;;;;;;;;;;;;;5060314;28;19940;-69
2023/12/22 14:47:30;;;;;;;;;;;;;;;;;;5063675;28;20004;-68
2023/12/22 14:49:59;;;;;;;;;;;;;;;;;;5065890;28;19946;-70
2023/12/22 14:52:27;;;;;;;;;;;;;;;;;;5059784;28;19924;-69
2023/12/22 14:54:54;;;;;;;;;;;;;;;;;;5052695;28;19931;-69
2023/12/22 14:57:21;;;;;;;;;;;;;;;;;;5067121;28;19928;-70
2023/12/22 14:59:48;;;;;;;;;;;;;;;;;;5068973;28;19950;-70
2023/12/22 15:02:15;;;;;;;;;;;;;;;;;;5061261;28;19948;-70
2023/12/22 15:04:42;;;;;;;;;;;;;;;;;;5061511;28;19932;-71
2023/12/22 15:07:09;;;;;;;;;;;;;;;;;;5066302;28;19928;-70
2023/12/22 15:09:36;;;;;;;;;;;;;;;;;;5061500;28;19995;-69
2023/12/22 15:12:04;;;;;;;;;;;;;;;;;;5063367;28;19978;-69
2023/12/22 15:14:31;;;;;;;;;;;;;;;;;;5066513;28;20073;-69
2023/12/22 15:16:58;;;;;;;;;;;;;;;;;;5063810;28;19924;-69
2023/12/22 15:19:26;;;;;;;;;;;;;;;;;;5066288;28;19937;-70
2023/12/22 15:21:53;;;;;;;;;;;;;;;;;;5068963;28;19989;-70
2023/12/22 15:24:20;;;;;;;;;;;;;;;;;;5065883;28;19931;-69
2023/12/22 15:26:47;;;;;;;;;;;;;;;;;;5063465;28;20402;-69
2023/12/22 15:29:15;;;;;;;;;;;;;;;;;;5062469;28;20437;-69
2023/12/22 15:31:42;;;;;;;;;;;;;;;;;;5063602;28;20394;-69
2023/12/22 15:34:09;;;;;;;;;;;;;;;;;;5062321;28;19925;-70
2023/12/22 15:36:36;;;;;;;;;;;;;;;;;;5063820;28;19924;-69
2023/12/22 15:39:03;;;;;;;;;;;;;;;;;;5061877;28;19928;-70
2023/12/22 15:41:30;;;;;;;;;;;;;;;;;;5052863;28;20007;-68
2023/12/22 15:43:58;;;;;;;;;;;;;;;;;;5065558;28;19932;-73
2023/12/22 15:46:25;;;;;;;;;;;;;;;;;;5061178;28;19970;-70
2023/12/22 15:48:52;;;;;;;;;;;;;;;;;;5063577;28;20272;-70
2023/12/22 15:51:19;;;;;;;;;;;;;;;;;;5061093;28;19983;-70
2023/12/22 15:53:46;;;;;;;;;;;;;;;;;;5059534;28;19931;-70
2023/12/22 15:56:13;;;;;;;;;;;;;;;;;;5060976;28;20003;-69
2023/12/22 15:58:41;;;;;;;;;;;;;;;;;;5060464;28;20399;-69
2023/12/22 16:01:08;;;;;;;;;;;;;;;;;;5060787;28;19963;-66
2023/12/22 16:03:35;;;;;;;;;;;;;;;;;;5051597;28;19940;-70
2023/12/22 16:06:02;;;;;;;;;;;;;;;;;;5060548;28;20011;-70
2023/12/22 16:08:29;;;;;;;;;;;;;;;;;;5063290;28;20417;-70
2023/12/22 16:10:56;;;;;;;;;;;;;;;;;;5067258;28;19924;-70
2023/12/22 16:13:24;;;;;;;;;;;;;;;;;;5055751;28;20024;-70
2023/12/22 16:15:51;;;;;;;;;;;;;;;;;;5056663;28;19924;-68
2023/12/22 16:18:19;;;;;;;;;;;;;;;;;;5063133;28;19925;-71
2023/12/22 16:20:46;;;;;;;;;;;;;;;;;;5059173;28;19932;-68
2023/12/22 16:23:14;;;;;;;;;;;;;;;;;;5057970;28;19972;-70
2023/12/22 16:25:41;;;;;;;;;;;;;;;;;;5061902;28;20444;-69
2023/12/22 16:28:08;;;;;;;;;;;;;;;;;;5064999;28;19924;-69
2023/12/22 16:30:36;;;;;;;;;;;;;;;;;;5064547;28;20409;-69
2023/12/22 16:33:03;;;;;;;;;;;;;;;;;;5065866;28;19925;-69
2023/12/22 16:35:30;;;;;;;;;;;;;;;;;;5069150;28;21543;-70
2023/12/22 16:37:56;;;;;;;;;;;;;;;;;;5067526;28;19925;-69
2023/12/22 16:40:24;;;;;;;;;;;;;;;;;;5069541;28;19998;-68
2023/12/22 16:42:51;;;;;;;;;;;;;;;;;;5061374;28;20027;-68
2023/12/22 16:45:18;;;;;;;;;;;;;;;;;;5067308;28;19924;-69